International Virtual Aviation Organisation

Russian Federation and Kazakhstan MCD

 
UWOO 031930Z 00000MPS CAVOK M21/M23 Q1040 R26/820250 NOSIG RMK QFE769/1026
QNH:(hPa/inHg/mmHg)1040 / 30.71 / 780
QFE:(hPa/inHg/mmHg)1026 / 30.29 / 769
Temperature-21
Dew Point-23
Visibility> 10000
WeatherCAVOK
Cloud Cover
Transition Height700 m./2700 ft.
Transition LevelFL40
SQUAWK